»·PEaware :: N982YR KTOA-KSBP

N982YR :: KTOA-KSBP

FLIGHT INFORMATION

Flight Status: Arrived
Operator: Privately registered:
United States
More flights under this callsign
Pilot: Anonymous 15639 (15639)
Aircraft: CESSNA 172 SKYHAWK
(C172)
More flights by this aircraft type
Origin: KTOA Zamperini
United States
Destination: KSBP San Luis Co Regl
United States
More flights between these airports :: More routes between these airports
Route: +LIMBO V64 SLI V123 LAX V299 VTU V25 RZS V12 GVO V27 MQO
File this flight plan on PilotEdge
Remarks:
Altitude:
(Current/Filed)
8,000ft
Speed:
(Current/Filed)
120kts
Departed: 27-Apr-19 07:28 AM
Arrived: 27-Apr-19 09:11 AM
Distance/Time
Traveled:
143nm/1:43
Distance/Time
To Go:
Arrived

Flight Plot

Page will automatically refresh every two minutes.

Flight plan parsing failed; only flown route is shown


Map Options




Map Legend


Flown Route
Filed Route
Departure Airport
Arrival Airport
Navaid (VOR, NDB)
Fix

Horizontal Profiles

Position Reports

Time Latitude Longitude Heading Altitude Ground
Speed
27-Apr-19 07:09 33.803347 -118.344052 39 107ft 0kts
27-Apr-19 07:10 33.803347 -118.344052 39 107ft 0kts
27-Apr-19 07:11 33.803347 -118.344052 39 107ft 0kts
27-Apr-19 07:12 33.803347 -118.344052 39 107ft 0kts
27-Apr-19 07:13 33.803347 -118.344052 39 107ft 0kts
27-Apr-19 07:14 33.803347 -118.344052 39 107ft 0kts
27-Apr-19 07:15 33.803347 -118.344052 39 107ft 0kts
27-Apr-19 07:16 33.803347 -118.344052 39 107ft 0kts
27-Apr-19 07:17 33.803347 -118.344052 39 107ft 0kts
27-Apr-19 07:18 33.803347 -118.344052 39 107ft 0kts
27-Apr-19 07:19 33.803347 -118.344052 39 107ft 0kts
27-Apr-19 07:20 33.803347 -118.344052 39 107ft 0kts
27-Apr-19 07:21 33.803386 -118.344007 52 107ft 0kts
27-Apr-19 07:22 33.802677 -118.342756 141 107ft 10kts
27-Apr-19 07:23 33.802968 -118.342136 69 107ft 9kts
27-Apr-19 07:24 33.800149 -118.337720 128 107ft 22kts
27-Apr-19 07:25 33.798999 -118.333383 37 107ft 0kts
27-Apr-19 07:26 33.798998 -118.333383 37 107ft 0kts
27-Apr-19 07:27 33.801056 -118.335100 310 108ft 60kts
27-Apr-19 07:28 33.814228 -118.354484 310 980ft 82kts
27-Apr-19 07:29 33.828603 -118.376615 308 1909ft 86kts
27-Apr-19 07:30 33.843320 -118.399136 310 2795ft 86kts
27-Apr-19 07:31 33.858503 -118.421807 308 3635ft 85kts
27-Apr-19 07:32 33.855635 -118.442000 180 4413ft 91kts
27-Apr-19 07:33 33.854126 -118.422251 22 5124ft 89kts
27-Apr-19 07:34 33.876098 -118.407989 23 5807ft 93kts
27-Apr-19 07:35 33.902116 -118.394350 341 6024ft 111kts
27-Apr-19 07:36 33.924071 -118.419531 311 5963ft 109kts
27-Apr-19 07:37 33.938248 -118.450024 290 5991ft 107kts
27-Apr-19 07:38 33.949404 -118.483199 292 5997ft 107kts
27-Apr-19 07:39 33.960452 -118.516647 292 5998ft 107kts
27-Apr-19 07:40 33.971467 -118.550299 292 5998ft 108kts
27-Apr-19 07:41 33.982405 -118.584069 292 5998ft 108kts
27-Apr-19 07:42 33.993374 -118.617983 292 5997ft 108kts
27-Apr-19 07:43 34.004227 -118.651568 291 5998ft 108kts
27-Apr-19 07:44 34.014996 -118.685565 291 5999ft 108kts
27-Apr-19 07:45 34.025876 -118.719640 291 5999ft 108kts
27-Apr-19 07:46 34.036521 -118.754189 285 5999ft 112kts
27-Apr-19 07:47 34.043303 -118.790871 288 5999ft 112kts
27-Apr-19 07:48 34.053117 -118.826564 289 5999ft 112kts
27-Apr-19 07:49 34.063003 -118.862287 289 5999ft 112kts
27-Apr-19 07:50 34.072625 -118.897128 289 6304ft 101kts
27-Apr-19 07:51 34.080759 -118.926794 289 7010ft 90kts
27-Apr-19 07:52 34.088623 -118.955395 289 7585ft 90kts
27-Apr-19 07:53 34.096742 -118.984852 289 8011ft 101kts
27-Apr-19 07:54 34.106435 -119.020097 289 8009ft 112kts
27-Apr-19 07:55 34.117465 -119.055059 300 8009ft 110kts
27-Apr-19 07:56 34.134575 -119.085930 303 8009ft 110kts
27-Apr-19 07:57 34.152648 -119.115966 305 8009ft 110kts
27-Apr-19 07:58 34.170135 -119.146643 303 8009ft 111kts
27-Apr-19 07:59 34.187657 -119.177651 303 8009ft 111kts
27-Apr-19 08:00 34.205123 -119.208568 303 8009ft 111kts
27-Apr-19 08:01 34.222649 -119.239610 303 8010ft 111kts
27-Apr-19 08:02 34.240151 -119.270634 303 8009ft 111kts
27-Apr-19 08:03 34.257605 -119.301598 303 8009ft 112kts
27-Apr-19 08:04 34.275337 -119.333124 303 8008ft 113kts
27-Apr-19 08:05 34.293089 -119.364672 303 8008ft 113kts
27-Apr-19 08:06 34.310784 -119.396204 303 8008ft 113kts
27-Apr-19 08:07 34.328206 -119.427965 300 8008ft 113kts
27-Apr-19 08:08 34.344391 -119.460655 300 8008ft 113kts
27-Apr-19 08:09 34.360636 -119.493452 300 7999ft 113kts
27-Apr-19 08:10 34.376882 -119.526262 300 7999ft 113kts
27-Apr-19 08:11 34.394038 -119.558264 302 7999ft 113kts
27-Apr-19 08:12 34.411330 -119.590103 302 7998ft 113kts
27-Apr-19 08:13 34.428664 -119.621952 303 7998ft 113kts
27-Apr-19 08:14 34.446073 -119.653980 302 8000ft 114kts
27-Apr-19 08:15 34.463380 -119.686299 302 8000ft 114kts
27-Apr-19 08:16 34.480792 -119.718696 302 8000ft 114kts
27-Apr-19 08:17 34.498131 -119.751266 302 8000ft 114kts
27-Apr-19 08:18 34.505675 -119.788400 278 8000ft 115kts
27-Apr-19 08:19 34.509526 -119.826935 277 8000ft 115kts
27-Apr-19 08:20 34.513000 -119.865661 277 8000ft 115kts
27-Apr-19 08:21 34.516279 -119.904462 276 8001ft 115kts
27-Apr-19 08:22 34.519441 -119.943119 276 8000ft 115kts
27-Apr-19 08:23 34.522554 -119.981919 276 8000ft 115kts
27-Apr-19 08:24 34.525638 -120.020628 276 7999ft 115kts
27-Apr-19 08:25 34.528630 -120.059460 276 7999ft 115kts
27-Apr-19 08:26 34.533034 -120.097643 306 7994ft 114kts
27-Apr-19 08:27 34.558717 -120.120573 325 7999ft 115kts
27-Apr-19 08:28 34.585944 -120.141404 323 7999ft 115kts
27-Apr-19 08:29 34.611784 -120.164535 321 7999ft 115kts
27-Apr-19 08:30 34.637385 -120.187709 321 7999ft 115kts
27-Apr-19 08:32 34.663068 -120.211043 321 7999ft 116kts
27-Apr-19 08:33 34.688876 -120.234528 321 7999ft 116kts
27-Apr-19 08:34 34.714732 -120.258097 321 7999ft 116kts
27-Apr-19 08:35 34.740516 -120.281619 321 7999ft 116kts
27-Apr-19 08:36 34.766290 -120.305156 321 7999ft 115kts
27-Apr-19 08:37 34.792020 -120.328683 321 7999ft 115kts
27-Apr-19 08:38 34.817997 -120.351807 322 7999ft 115kts
27-Apr-19 08:39 34.843844 -120.375079 321 7999ft 115kts
27-Apr-19 08:40 34.869435 -120.398616 321 7999ft 115kts
27-Apr-19 08:41 34.894939 -120.422327 321 7998ft 115kts
27-Apr-19 08:42 34.920372 -120.446148 321 7998ft 115kts
27-Apr-19 08:43 34.945762 -120.469997 321 7998ft 115kts
27-Apr-19 08:44 34.971174 -120.493899 321 7998ft 115kts
27-Apr-19 08:45 34.996547 -120.517776 321 7998ft 115kts
27-Apr-19 08:46 35.021856 -120.541589 321 7998ft 115kts
27-Apr-19 08:47 35.047326 -120.565628 321 7928ft 119kts
27-Apr-19 08:48 35.074360 -120.591071 321 7423ft 123kts
27-Apr-19 08:49 35.101490 -120.616651 322 6914ft 123kts
27-Apr-19 08:50 35.128618 -120.641993 322 6412ft 122kts
27-Apr-19 08:50 35.150776 -120.663099 321 6000ft 121kts
27-Apr-19 08:52 35.181828 -120.692822 321 5421ft 122kts
27-Apr-19 08:53 35.208650 -120.718343 321 4926ft 123kts
27-Apr-19 08:53 35.231254 -120.739844 321 4511ft 124kts
27-Apr-19 08:54 35.258757 -120.765699 322 4025ft 125kts
27-Apr-19 08:55 35.285347 -120.789787 322 3999ft 116kts
27-Apr-19 08:57 35.315330 -120.817493 322 4000ft 115kts
27-Apr-19 08:57 35.336725 -120.837310 322 4000ft 116kts
27-Apr-19 08:58 35.362376 -120.861082 321 4000ft 115kts
27-Apr-19 08:59 35.380744 -120.893398 302 4000ft 115kts
27-Apr-19 09:00 35.368479 -120.915478 149 3998ft 120kts
27-Apr-19 09:01 35.360347 -120.877037 94 4000ft 121kts
27-Apr-19 09:02 35.350851 -120.839175 127 3427ft 117kts
27-Apr-19 09:03 35.331717 -120.807192 124 2727ft 115kts
27-Apr-19 09:04 35.313916 -120.776031 123 2402ft 103kts
27-Apr-19 09:05 35.298110 -120.748046 123 2161ft 94kts
27-Apr-19 09:06 35.283269 -120.721725 128 1677ft 91kts
27-Apr-19 09:07 35.269203 -120.696893 122 1184ft 89kts
27-Apr-19 09:08 35.255168 -120.672917 124 744ft 87kts
27-Apr-19 09:09 35.241622 -120.648506 125 238ft 84kts
27-Apr-19 09:10 35.235340 -120.636170 76 215ft 0kts
27-Apr-19 09:11 35.235340 -120.636170 76 215ft 0kts
27-Apr-19 09:12 35.236758 -120.638073 303 215ft 19kts
27-Apr-19 09:13 35.238418 -120.640195 298 215ft 0kts

Navigation Log

Ident Type
Flight plan parsing failed, navigation log unavailable